sensor_id;sensor_type;location;lat;lon;timestamp;pressure;altitude;pressure_sealevel;temperature;humidity
57568;BME280;43403;51.948;5.922;2023-08-06T00:00:30;100371.91;;;16.80;100.00
57568;BME280;43403;51.948;5.922;2023-08-06T00:02:56;100374.53;;;16.80;100.00
57568;BME280;43403;51.948;5.922;2023-08-06T00:05:23;100367.06;;;16.84;100.00
57568;BME280;43403;51.948;5.922;2023-08-06T00:07:50;100363.38;;;16.85;100.00
57568;BME280;43403;51.948;5.922;2023-08-06T00:10:17;100374.81;;;16.86;100.00
57568;BME280;43403;51.948;5.922;2023-08-06T00:12:44;100367.25;;;16.83;100.00
57568;BME280;43403;51.948;5.922;2023-08-06T00:15:11;100368.88;;;16.84;100.00
57568;BME280;43403;51.948;5.922;2023-08-06T00:17:38;100366.78;;;16.79;100.00
57568;BME280;43403;51.948;5.922;2023-08-06T00:20:05;100369.25;;;16.80;100.00
57568;BME280;43403;51.948;5.922;2023-08-06T00:22:34;100362.94;;;16.82;100.00
57568;BME280;43403;51.948;5.922;2023-08-06T00:25:01;100358.84;;;16.79;100.00
57568;BME280;43403;51.948;5.922;2023-08-06T00:27:28;100363.94;;;16.80;100.00
57568;BME280;43403;51.948;5.922;2023-08-06T00:29:55;100361.50;;;16.79;100.00
57568;BME280;43403;51.948;5.922;2023-08-06T00:32:22;100359.88;;;16.78;100.00
57568;BME280;43403;51.948;5.922;2023-08-06T00:34:48;100364.94;;;16.79;100.00
57568;BME280;43403;51.948;5.922;2023-08-06T00:37:18;100357.81;;;16.73;100.00
57568;BME280;43403;51.948;5.922;2023-08-06T00:39:44;100358.41;;;16.75;100.00
57568;BME280;43403;51.948;5.922;2023-08-06T00:42:11;100360.25;;;16.75;100.00
57568;BME280;43403;51.948;5.922;2023-08-06T00:44:38;100361.69;;;16.77;100.00
57568;BME280;43403;51.948;5.922;2023-08-06T00:47:06;100362.72;;;16.76;100.00
57568;BME280;43403;51.948;5.922;2023-08-06T00:49:35;100363.09;;;16.73;100.00
57568;BME280;43403;51.948;5.922;2023-08-06T00:52:02;100359.44;;;16.74;100.00
57568;BME280;43403;51.948;5.922;2023-08-06T00:54:30;100360.44;;;16.73;100.00
57568;BME280;43403;51.948;5.922;2023-08-06T00:56:58;100358.41;;;16.75;100.00
57568;BME280;43403;51.948;5.922;2023-08-06T00:59:26;100358.41;;;16.75;100.00
57568;BME280;43403;51.948;5.922;2023-08-06T01:01:53;100369.81;;;16.69;100.00
57568;BME280;43403;51.948;5.922;2023-08-06T01:04:20;100364.91;;;16.66;100.00
57568;BME280;43403;51.948;5.922;2023-08-06T01:06:48;100357.16;;;16.65;100.00
57568;BME280;43403;51.948;5.922;2023-08-06T01:15:05;100357.34;;;16.63;100.00
57568;BME280;43403;51.948;5.922;2023-08-06T01:17:34;100362.47;;;16.65;100.00
57568;BME280;43403;51.948;5.922;2023-08-06T01:20:01;100359.63;;;16.66;100.00
57568;BME280;43403;51.948;5.922;2023-08-06T01:22:28;100359.00;;;16.64;100.00
57568;BME280;43403;51.948;5.922;2023-08-06T01:24:55;100361.44;;;16.66;100.00
57568;BME280;43403;51.948;5.922;2023-08-06T01:27:48;100356.97;;;16.66;100.00
57568;BME280;43403;51.948;5.922;2023-08-06T01:30:18;100355.13;;;16.67;100.00
57568;BME280;43403;51.948;5.922;2023-08-06T01:32:50;100355.53;;;16.64;100.00
57568;BME280;43403;51.948;5.922;2023-08-06T01:35:21;100350.41;;;16.62;100.00
57568;BME280;43403;51.948;5.922;2023-08-06T01:37:49;100344.72;;;16.58;100.00
57568;BME280;43403;51.948;5.922;2023-08-06T01:40:16;100343.50;;;16.61;100.00
57568;BME280;43403;51.948;5.922;2023-08-06T01:42:42;100347.16;;;16.60;100.00
57568;BME280;43403;51.948;5.922;2023-08-06T01:45:09;100345.28;;;16.54;100.00
57568;BME280;43403;51.948;5.922;2023-08-06T01:47:36;100344.28;;;16.55;100.00
57568;BME280;43403;51.948;5.922;2023-08-06T01:50:03;100349.41;;;16.56;100.00
57568;BME280;43403;51.948;5.922;2023-08-06T01:52:30;100352.84;;;16.57;100.00
57568;BME280;43403;51.948;5.922;2023-08-06T01:54:57;100350.63;;;16.60;100.00
57568;BME280;43403;51.948;5.922;2023-08-06T01:57:23;100344.50;;;16.60;100.00
57568;BME280;43403;51.948;5.922;2023-08-06T01:59:50;100349.00;;;16.59;100.00
57568;BME280;43403;51.948;5.922;2023-08-06T02:02:16;100350.41;;;16.62;100.00
57568;BME280;43403;51.948;5.922;2023-08-06T02:04:43;100342.47;;;16.62;100.00
57568;BME280;43403;51.948;5.922;2023-08-06T02:07:09;100340.66;;;16.63;100.00
57568;BME280;43403;51.948;5.922;2023-08-06T02:09:36;100340.25;;;16.59;100.00
57568;BME280;43403;51.948;5.922;2023-08-06T02:12:03;100340.44;;;16.57;100.00
57568;BME280;43403;51.948;5.922;2023-08-06T02:14:30;100348.38;;;16.57;100.00
57568;BME280;43403;51.948;5.922;2023-08-06T02:16:56;100344.50;;;16.53;100.00
57568;BME280;43403;51.948;5.922;2023-08-06T02:19:23;100345.72;;;16.57;100.00
57568;BME280;43403;51.948;5.922;2023-08-06T02:21:49;100337.97;;;16.56;100.00
57568;BME280;43403;51.948;5.922;2023-08-06T02:24:16;100341.47;;;16.56;100.00
57568;BME280;43403;51.948;5.922;2023-08-06T02:26:43;100336.34;;;16.55;100.00
57568;BME280;43403;51.948;5.922;2023-08-06T02:29:09;100328.16;;;16.50;100.00
57568;BME280;43403;51.948;5.922;2023-08-06T02:31:36;100331.88;;;16.55;100.00
57568;BME280;43403;51.948;5.922;2023-08-06T02:34:03;100325.94;;;16.53;100.00
57568;BME280;43403;51.948;5.922;2023-08-06T02:36:29;100323.69;;;16.50;100.00
57568;BME280;43403;51.948;5.922;2023-08-06T02:38:56;100321.03;;;16.50;100.00
57568;BME280;43403;51.948;5.922;2023-08-06T02:41:22;100326.34;;;16.50;100.00
57568;BME280;43403;51.948;5.922;2023-08-06T02:43:49;100318.63;;;16.49;100.00
57568;BME280;43403;51.948;5.922;2023-08-06T02:46:16;100313.09;;;16.50;100.00
57568;BME280;43403;51.948;5.922;2023-08-06T02:48:42;100312.69;;;16.47;100.00
57568;BME280;43403;51.948;5.922;2023-08-06T02:51:09;100317.59;;;16.50;100.00
57568;BME280;43403;51.948;5.922;2023-08-06T02:53:35;100315.56;;;16.52;100.00
57568;BME280;43403;51.948;5.922;2023-08-06T02:56:02;100313.94;;;16.51;100.00
57568;BME280;43403;51.948;5.922;2023-08-06T02:58:29;100311.06;;;16.52;100.00
57568;BME280;43403;51.948;5.922;2023-08-06T03:01:03;100315.97;;;16.55;100.00
57568;BME280;43403;51.948;5.922;2023-08-06T03:03:31;100315.16;;;16.55;100.00
57568;BME280;43403;51.948;5.922;2023-08-06T03:05:58;100312.09;;;16.51;100.00
57568;BME280;43403;51.948;5.922;2023-08-06T03:08:25;100316.59;;;16.51;100.00
57568;BME280;43403;51.948;5.922;2023-08-06T03:10:52;100308.84;;;16.49;100.00
57568;BME280;43403;51.948;5.922;2023-08-06T03:13:19;100313.72;;;16.52;100.00
57568;BME280;43403;51.948;5.922;2023-08-06T03:15:56;100307.59;;;16.52;100.00
57568;BME280;43403;51.948;5.922;2023-08-06T03:18:22;100307.19;;;16.48;100.00
57568;BME280;43403;51.948;5.922;2023-08-06T03:20:49;100294.38;;;16.45;100.00
57568;BME280;43403;51.948;5.922;2023-08-06T03:23:16;100308.59;;;16.44;100.00
57568;BME280;43403;51.948;5.922;2023-08-06T03:25:42;100300.88;;;16.43;100.00
57568;BME280;43403;51.948;5.922;2023-08-06T03:28:09;100299.66;;;16.45;100.00
57568;BME280;43403;51.948;5.922;2023-08-06T03:30:36;100298.00;;;16.44;100.00
57568;BME280;43403;51.948;5.922;2023-08-06T03:33:02;100301.69;;;16.43;100.00
57568;BME280;43403;51.948;5.922;2023-08-06T03:35:29;100305.94;;;16.44;100.00
57568;BME280;43403;51.948;5.922;2023-08-06T03:37:56;100301.50;;;16.45;100.00
57568;BME280;43403;51.948;5.922;2023-08-06T03:40:23;100305.13;;;16.44;100.00
57568;BME280;43403;51.948;5.922;2023-08-06T03:42:49;100299.47;;;16.47;100.00
57568;BME280;43403;51.948;5.922;2023-08-06T03:45:16;100297.00;;;16.45;100.00
57568;BME280;43403;51.948;5.922;2023-08-06T03:47:42;100297.81;;;16.46;100.00
57568;BME280;43403;51.948;5.922;2023-08-06T03:50:09;100300.69;;;16.51;100.00
57568;BME280;43403;51.948;5.922;2023-08-06T03:52:36;100292.09;;;16.42;100.00
57568;BME280;43403;51.948;5.922;2023-08-06T03:55:03;100304.94;;;16.45;100.00
57568;BME280;43403;51.948;5.922;2023-08-06T03:57:29;100303.72;;;16.48;100.00
57568;BME280;43403;51.948;5.922;2023-08-06T03:59:56;100300.88;;;16.49;100.00
57568;BME280;43403;51.948;5.922;2023-08-06T04:02:22;100306.19;;;16.49;100.00
57568;BME280;43403;51.948;5.922;2023-08-06T04:04:49;100310.25;;;16.52;100.00
57568;BME280;43403;51.948;5.922;2023-08-06T04:07:15;100296.22;;;16.51;100.00
57568;BME280;43403;51.948;5.922;2023-08-06T04:09:57;100297.63;;;16.54;100.00
57568;BME280;43403;51.948;5.922;2023-08-06T04:12:24;100306.81;;;16.51;100.00
57568;BME280;43403;51.948;5.922;2023-08-06T04:14:51;100301.50;;;16.51;100.00
57568;BME280;43403;51.948;5.922;2023-08-06T04:17:19;100304.16;;;16.51;100.00
57568;BME280;43403;51.948;5.922;2023-08-06T04:19:51;100306.81;;;16.51;100.00
57568;BME280;43403;51.948;5.922;2023-08-06T04:22:18;100303.34;;;16.51;100.00
57568;BME280;43403;51.948;5.922;2023-08-06T04:24:45;100304.97;;;16.52;100.00
57568;BME280;43403;51.948;5.922;2023-08-06T04:27:13;100307.41;;;16.53;100.00
57568;BME280;43403;51.948;5.922;2023-08-06T04:29:40;100300.91;;;16.56;100.00
57568;BME280;43403;51.948;5.922;2023-08-06T04:32:08;100306.00;;;16.57;100.00
57568;BME280;43403;51.948;5.922;2023-08-06T04:34:36;100310.09;;;16.60;100.00
57568;BME280;43403;51.948;5.922;2023-08-06T04:37:03;100310.09;;;16.60;100.00
57568;BME280;43403;51.948;5.922;2023-08-06T04:39:30;100311.91;;;16.59;100.00
57568;BME280;43403;51.948;5.922;2023-08-06T04:41:57;100311.09;;;16.59;100.00
57568;BME280;43403;51.948;5.922;2023-08-06T04:44:26;100315.00;;;16.63;100.00
57568;BME280;43403;51.948;5.922;2023-08-06T04:46:52;100321.09;;;16.64;100.00
57568;BME280;43403;51.948;5.922;2023-08-06T04:49:22;100318.44;;;16.64;100.00
57568;BME280;43403;51.948;5.922;2023-08-06T04:51:49;100314.00;;;16.64;100.00
57568;BME280;43403;51.948;5.922;2023-08-06T04:54:15;100324.78;;;16.69;100.00
57568;BME280;43403;51.948;5.922;2023-08-06T04:56:42;100326.44;;;16.70;100.00
57568;BME280;43403;51.948;5.922;2023-08-06T04:59:09;100320.72;;;16.73;100.00
57568;BME280;43403;51.948;5.922;2023-08-06T05:01:35;100323.00;;;16.76;100.00
57568;BME280;43403;51.948;5.922;2023-08-06T05:04:02;100325.44;;;16.78;100.00
57568;BME280;43403;51.948;5.922;2023-08-06T05:06:28;100330.13;;;16.76;100.00
57568;BME280;43403;51.948;5.922;2023-08-06T05:08:55;100320.53;;;16.75;100.00
57568;BME280;43403;51.948;5.922;2023-08-06T05:11:22;100321.94;;;16.77;100.00
57568;BME280;43403;51.948;5.922;2023-08-06T05:13:48;100325.88;;;16.82;100.00
57568;BME280;43403;51.948;5.922;2023-08-06T05:16:15;100323.63;;;16.85;100.00
57568;BME280;43403;51.948;5.922;2023-08-06T05:18:41;100332.63;;;16.91;100.00
57568;BME280;43403;51.948;5.922;2023-08-06T05:21:08;100327.53;;;16.89;100.00
57568;BME280;43403;51.948;5.922;2023-08-06T05:23:35;100335.88;;;16.93;100.00
57568;BME280;43403;51.948;5.922;2023-08-06T05:26:01;100336.94;;;16.98;100.00
57568;BME280;43403;51.948;5.922;2023-08-06T05:28:28;100335.69;;;17.01;100.00
57568;BME280;43403;51.948;5.922;2023-08-06T05:30:54;100345.09;;;17.04;100.00
57568;BME280;43403;51.948;5.922;2023-08-06T05:33:21;100336.94;;;17.05;100.00
57568;BME280;43403;51.948;5.922;2023-08-06T05:35:49;100351.63;;;17.08;100.00
57568;BME280;43403;51.948;5.922;2023-08-06T05:38:16;100349.97;;;17.07;100.00
57568;BME280;43403;51.948;5.922;2023-08-06T05:40:43;100354.69;;;17.11;100.00
57568;BME280;43403;51.948;5.922;2023-08-06T05:43:10;100358.97;;;17.12;100.00
57568;BME280;43403;51.948;5.922;2023-08-06T05:45:36;100351.81;;;17.13;100.00
57568;BME280;43403;51.948;5.922;2023-08-06T05:48:03;100364.69;;;17.16;100.00
57568;BME280;43403;51.948;5.922;2023-08-06T05:50:30;100369.38;;;17.20;100.00
57568;BME280;43403;51.948;5.922;2023-08-06T05:52:56;100370.22;;;17.21;100.00
57568;BME280;43403;51.948;5.922;2023-08-06T05:55:27;100371.63;;;17.24;100.00
57568;BME280;43403;51.948;5.922;2023-08-06T05:57:54;100369.41;;;17.27;100.00
57568;BME280;43403;51.948;5.922;2023-08-06T06:00:21;100370.22;;;17.28;100.00
57568;BME280;43403;51.948;5.922;2023-08-06T06:02:48;100378.34;;;17.26;100.00
57568;BME280;43403;51.948;5.922;2023-08-06T06:05:15;100376.53;;;17.27;100.00
57568;BME280;43403;51.948;5.922;2023-08-06T06:07:41;100374.91;;;17.26;100.00
57568;BME280;43403;51.948;5.922;2023-08-06T06:10:08;100378.16;;;17.28;100.00
57568;BME280;43403;51.948;5.922;2023-08-06T06:12:35;100381.44;;;17.30;100.00
57568;BME280;43403;51.948;5.922;2023-08-06T06:15:01;100385.09;;;17.29;100.00
57568;BME280;43403;51.948;5.922;2023-08-06T06:17:28;100391.03;;;17.31;100.00
57568;BME280;43403;51.948;5.922;2023-08-06T06:19:55;100390.00;;;17.32;100.00
57568;BME280;43403;51.948;5.922;2023-08-06T06:22:21;100397.34;;;17.30;100.00
57568;BME280;43403;51.948;5.922;2023-08-06T06:24:48;100386.53;;;17.31;100.00
57568;BME280;43403;51.948;5.922;2023-08-06T06:27:14;100393.06;;;17.35;100.00
57568;BME280;43403;51.948;5.922;2023-08-06T06:29:41;100395.53;;;17.37;100.00
57568;BME280;43403;51.948;5.922;2023-08-06T06:32:07;100398.78;;;17.39;100.00
57568;BME280;43403;51.948;5.922;2023-08-06T06:34:34;100405.31;;;17.43;100.00
57568;BME280;43403;51.948;5.922;2023-08-06T06:37:01;100413.06;;;17.45;100.00
57568;BME280;43403;51.948;5.922;2023-08-06T06:39:27;100417.78;;;17.43;100.00
57568;BME280;43403;51.948;5.922;2023-08-06T06:41:54;100418.97;;;17.40;100.00
57568;BME280;43403;51.948;5.922;2023-08-06T06:44:21;100409.41;;;17.39;100.00
57568;BME280;43403;51.948;5.922;2023-08-06T06:46:47;100420.63;;;17.41;100.00
57568;BME280;43403;51.948;5.922;2023-08-06T06:49:14;100423.06;;;17.43;100.00
57568;BME280;43403;51.948;5.922;2023-08-06T06:51:41;100419.81;;;17.47;100.00
57568;BME280;43403;51.948;5.922;2023-08-06T06:54:07;100421.41;;;17.48;100.00
57568;BME280;43403;51.948;5.922;2023-08-06T06:56:34;100421.41;;;17.48;100.00
57568;BME280;43403;51.948;5.922;2023-08-06T06:59:00;100421.22;;;17.50;100.00
57568;BME280;43403;51.948;5.922;2023-08-06T07:01:27;100427.16;;;17.52;100.00
57568;BME280;43403;51.948;5.922;2023-08-06T07:03:54;100426.94;;;17.53;100.00
57568;BME280;43403;51.948;5.922;2023-08-06T07:06:20;100430.03;;;17.57;100.00
57568;BME280;43403;51.948;5.922;2023-08-06T07:08:47;100420.84;;;17.59;100.00
57568;BME280;43403;51.948;5.922;2023-08-06T07:11:14;100430.63;;;17.59;100.00
57568;BME280;43403;51.948;5.922;2023-08-06T07:13:40;100431.63;;;17.58;100.00
57568;BME280;43403;51.948;5.922;2023-08-06T07:16:06;100433.28;;;17.59;100.00
57568;BME280;43403;51.948;5.922;2023-08-06T07:18:37;100437.78;;;17.58;100.00
57568;BME280;43403;51.948;5.922;2023-08-06T07:21:03;100444.50;;;17.61;100.00
57568;BME280;43403;51.948;5.922;2023-08-06T07:23:30;100440.00;;;17.62;100.00
57568;BME280;43403;51.948;5.922;2023-08-06T07:25:56;100445.13;;;17.63;100.00
57568;BME280;43403;51.948;5.922;2023-08-06T07:28:22;100443.28;;;17.64;100.00
57568;BME280;43403;51.948;5.922;2023-08-06T07:30:49;100440.22;;;17.60;100.00
57568;BME280;43403;51.948;5.922;2023-08-06T07:33:16;100441.03;;;17.61;100.00
57568;BME280;43403;51.948;5.922;2023-08-06T07:35:42;100443.28;;;17.64;100.00
57568;BME280;43403;51.948;5.922;2023-08-06T07:38:09;100448.19;;;17.67;100.00
57568;BME280;43403;51.948;5.922;2023-08-06T07:40:36;100447.78;;;17.70;100.00
57568;BME280;43403;51.948;5.922;2023-08-06T07:43:03;100451.88;;;17.72;100.00
57568;BME280;43403;51.948;5.922;2023-08-06T07:45:34;100448.59;;;17.77;100.00
57568;BME280;43403;51.948;5.922;2023-08-06T07:48:02;100459.44;;;17.82;100.00
57568;BME280;43403;51.948;5.922;2023-08-06T07:50:29;100450.44;;;17.83;100.00
57568;BME280;43403;51.948;5.922;2023-08-06T07:52:55;100456.59;;;17.90;100.00
57568;BME280;43403;51.948;5.922;2023-08-06T07:55:22;100456.59;;;17.90;100.00
57568;BME280;43403;51.948;5.922;2023-08-06T07:57:49;100448.22;;;17.93;100.00
57568;BME280;43403;51.948;5.922;2023-08-06T08:00:15;100457.44;;;17.97;100.00
57568;BME280;43403;51.948;5.922;2023-08-06T08:02:42;100448.44;;;17.98;100.00
57568;BME280;43403;51.948;5.922;2023-08-06T08:05:09;100456.19;;;18.07;100.00
57568;BME280;43403;51.948;5.922;2023-08-06T08:07:35;100454.78;;;18.17;100.00
57568;BME280;43403;51.948;5.922;2023-08-06T08:10:01;100448.84;;;18.22;100.00
57568;BME280;43403;51.948;5.922;2023-08-06T08:12:28;100454.34;;;18.27;100.00
57568;BME280;43403;51.948;5.922;2023-08-06T08:14:54;100450.25;;;18.25;100.00
57568;BME280;43403;51.948;5.922;2023-08-06T08:17:21;100455.78;;;18.30;100.00
57568;BME280;43403;51.948;5.922;2023-08-06T08:19:47;100458.22;;;18.31;100.00
57568;BME280;43403;51.948;5.922;2023-08-06T08:22:14;100450.66;;;18.28;100.00
57568;BME280;43403;51.948;5.922;2023-08-06T08:24:41;100461.47;;;18.40;100.00
57568;BME280;43403;51.948;5.922;2023-08-06T08:27:07;100455.16;;;18.41;100.00
57568;BME280;43403;51.948;5.922;2023-08-06T08:29:33;100450.44;;;18.43;100.00
57568;BME280;43403;51.948;5.922;2023-08-06T08:32:00;100455.56;;;18.45;100.00
57568;BME280;43403;51.948;5.922;2023-08-06T08:34:26;100452.06;;;18.51;100.00
57568;BME280;43403;51.948;5.922;2023-08-06T08:36:53;100460.25;;;18.49;100.00
57568;BME280;43403;51.948;5.922;2023-08-06T08:39:20;100456.97;;;18.47;100.00
57568;BME280;43403;51.948;5.922;2023-08-06T08:41:46;100465.53;;;18.56;100.00
57568;BME280;43403;51.948;5.922;2023-08-06T08:44:14;100462.06;;;18.62;100.00
57568;BME280;43403;51.948;5.922;2023-08-06T08:46:43;100461.44;;;18.67;100.00
57568;BME280;43403;51.948;5.922;2023-08-06T08:49:10;100456.69;;;18.75;100.00
57568;BME280;43403;51.948;5.922;2023-08-06T08:51:37;100462.44;;;18.86;100.00
57568;BME280;43403;51.948;5.922;2023-08-06T08:54:04;100463.22;;;18.93;100.00
57568;BME280;43403;51.948;5.922;2023-08-06T08:56:34;100459.09;;;18.97;100.00
57568;BME280;43403;51.948;5.922;2023-08-06T08:59:00;100467.06;;;19.04;100.00
57568;BME280;43403;51.948;5.922;2023-08-06T09:01:27;100465.84;;;19.00;100.00
57568;BME280;43403;51.948;5.922;2023-08-06T09:03:55;100462.16;;;19.07;100.00
57568;BME280;43403;51.948;5.922;2023-08-06T09:06:23;100464.34;;;19.17;100.00
57568;BME280;43403;51.948;5.922;2023-08-06T09:08:59;100462.66;;;19.23;100.00
57568;BME280;43403;51.948;5.922;2023-08-06T09:11:27;100463.91;;;19.27;100.00
57568;BME280;43403;51.948;5.922;2023-08-06T09:13:57;100466.31;;;19.35;100.00
57568;BME280;43403;51.948;5.922;2023-08-06T09:16:24;100468.56;;;19.31;100.00
57568;BME280;43403;51.948;5.922;2023-08-06T09:18:51;100471.84;;;19.33;100.00
57568;BME280;43403;51.948;5.922;2023-08-06T09:21:18;100472.47;;;19.29;100.00
57568;BME280;43403;51.948;5.922;2023-08-06T09:23:44;100469.19;;;19.33;100.00
57568;BME280;43403;51.948;5.922;2023-08-06T09:26:12;100476.50;;;19.45;100.00
57568;BME280;43403;51.948;5.922;2023-08-06T09:28:42;100480.97;;;19.44;100.00
57568;BME280;43403;51.948;5.922;2023-08-06T09:31:10;100478.16;;;19.39;100.00
57568;BME280;43403;51.948;5.922;2023-08-06T09:33:37;100481.44;;;19.34;100.00
57568;BME280;43403;51.948;5.922;2023-08-06T09:36:11;100483.03;;;19.42;100.00
57568;BME280;43403;51.948;5.922;2023-08-06T09:38:38;100484.66;;;19.43;100.00
57568;BME280;43403;51.948;5.922;2023-08-06T09:41:07;100491.00;;;19.49;100.00
57568;BME280;43403;51.948;5.922;2023-08-06T09:43:41;100479.53;;;19.48;100.00
57568;BME280;43403;51.948;5.922;2023-08-06T09:46:12;100486.66;;;19.54;100.00
57568;BME280;43403;51.948;5.922;2023-08-06T09:48:46;100496.25;;;19.55;100.00
57568;BME280;43403;51.948;5.922;2023-08-06T09:51:13;100493.22;;;19.52;100.00
57568;BME280;43403;51.948;5.922;2023-08-06T09:53:40;100496.56;;;19.41;100.00
57568;BME280;43403;51.948;5.922;2023-08-06T09:56:08;100495.72;;;19.40;100.00
57568;BME280;43403;51.948;5.922;2023-08-06T09:58:36;100500.69;;;19.30;100.00
57568;BME280;43403;51.948;5.922;2023-08-06T10:01:04;100501.59;;;19.17;100.00
57568;BME280;43403;51.948;5.922;2023-08-06T10:03:31;100496.09;;;19.05;100.00
57568;BME280;43403;51.948;5.922;2023-08-06T10:06:00;100501.88;;;18.95;100.00
57568;BME280;43403;51.948;5.922;2023-08-06T10:08:28;100500.84;;;18.83;100.00
57568;BME280;43403;51.948;5.922;2023-08-06T10:10:55;100509.22;;;18.73;100.00
57568;BME280;43403;51.948;5.922;2023-08-06T10:13:24;100513.75;;;18.66;100.00
57568;BME280;43403;51.948;5.922;2023-08-06T10:15:51;100516.81;;;18.50;100.00
57568;BME280;43403;51.948;5.922;2023-08-06T10:18:19;100516.25;;;18.21;100.00
57568;BME280;43403;51.948;5.922;2023-08-06T10:20:48;100526.03;;;18.14;100.00
57568;BME280;43403;51.948;5.922;2023-08-06T10:23:15;100530.50;;;18.07;100.00
57568;BME280;43403;51.948;5.922;2023-08-06T10:25:42;100528.47;;;17.95;100.00
57568;BME280;43403;51.948;5.922;2023-08-06T10:28:10;100537.44;;;17.88;100.00
57568;BME280;43403;51.948;5.922;2023-08-06T10:30:44;100546.50;;;17.58;100.00
57568;BME280;43403;51.948;5.922;2023-08-06T10:33:11;100548.25;;;17.38;100.00
57568;BME280;43403;51.948;5.922;2023-08-06T10:35:43;100556.38;;;17.30;100.00
57568;BME280;43403;51.948;5.922;2023-08-06T10:38:21;100551.44;;;17.20;100.00
57568;BME280;43403;51.948;5.922;2023-08-06T10:40:52;100553.81;;;17.08;100.00
57568;BME280;43403;51.948;5.922;2023-08-06T10:45:54;100567.78;;;16.89;100.00
57568;BME280;43403;51.948;5.922;2023-08-06T10:48:41;100566.22;;;16.73;100.00
57568;BME280;43403;51.948;5.922;2023-08-06T10:51:10;100565.59;;;16.71;100.00
57568;BME280;43403;51.948;5.922;2023-08-06T10:53:38;100561.72;;;16.45;100.00
57568;BME280;43403;51.948;5.922;2023-08-06T10:56:20;100564.75;;;16.42;100.00
57568;BME280;43403;51.948;5.922;2023-08-06T10:58:50;100567.34;;;16.35;100.00
57568;BME280;43403;51.948;5.922;2023-08-06T11:01:17;100571.44;;;16.38;100.00
57568;BME280;43403;51.948;5.922;2023-08-06T11:03:45;100572.78;;;16.27;100.00
57568;BME280;43403;51.948;5.922;2023-08-06T11:06:17;100583.28;;;16.20;100.00
57568;BME280;43403;51.948;5.922;2023-08-06T11:08:53;100575.59;;;16.26;100.00
57568;BME280;43403;51.948;5.922;2023-08-06T11:11:22;100577.63;;;16.24;100.00
57568;BME280;43403;51.948;5.922;2023-08-06T11:13:50;100579.03;;;16.19;100.00
57568;BME280;43403;51.948;5.922;2023-08-06T11:16:19;100576.38;;;16.19;100.00
57568;BME280;43403;51.948;5.922;2023-08-06T11:18:46;100578.56;;;16.16;100.00
57568;BME280;43403;51.948;5.922;2023-08-06T11:21:14;100587.25;;;16.10;100.00
57568;BME280;43403;51.948;5.922;2023-08-06T11:23:41;100576.81;;;16.01;100.00
57568;BME280;43403;51.948;5.922;2023-08-06T11:26:07;100586.94;;;15.98;100.00
57568;BME280;43403;51.948;5.922;2023-08-06T11:28:34;100577.63;;;16.02;100.00
57568;BME280;43403;51.948;5.922;2023-08-06T11:31:01;100579.50;;;15.87;100.00
57568;BME280;43403;51.948;5.922;2023-08-06T11:33:29;100592.47;;;16.03;100.00
57568;BME280;43403;51.948;5.922;2023-08-06T11:35:58;100600.03;;;16.06;100.00
57568;BME280;43403;51.948;5.922;2023-08-06T11:38:30;100602.34;;;16.09;100.00
57568;BME280;43403;51.948;5.922;2023-08-06T11:40:57;100600.31;;;16.11;100.00
57568;BME280;43403;51.948;5.922;2023-08-06T11:43:24;100603.59;;;16.13;100.00
57568;BME280;43403;51.948;5.922;2023-08-06T11:45:51;100597.28;;;16.14;100.00
57568;BME280;43403;51.948;5.922;2023-08-06T11:48:20;100605.06;;;16.01;100.00
57568;BME280;43403;51.948;5.922;2023-08-06T11:50:48;100608.97;;;16.05;100.00
57568;BME280;43403;51.948;5.922;2023-08-06T11:53:15;100613.84;;;16.01;100.00
57568;BME280;43403;51.948;5.922;2023-08-06T11:55:42;100612.91;;;16.09;100.00
57568;BME280;43403;51.948;5.922;2023-08-06T11:58:09;100624.50;;;16.08;100.00
57568;BME280;43403;51.948;5.922;2023-08-06T12:00:38;100623.22;;;16.04;100.00
57568;BME280;43403;51.948;5.922;2023-08-06T12:03:05;100627.31;;;16.07;100.00
57568;BME280;43403;51.948;5.922;2023-08-06T12:05:32;100632.88;;;16.12;100.00
57568;BME280;43403;51.948;5.922;2023-08-06T12:08:01;100634.25;;;16.08;100.00
57568;BME280;43403;51.948;5.922;2023-08-06T12:10:30;100646.41;;;16.02;100.00
57568;BME280;43403;51.948;5.922;2023-08-06T12:12:57;100652.63;;;15.94;100.00
57568;BME280;43403;51.948;5.922;2023-08-06T12:15:24;100654.81;;;15.91;100.00
57568;BME280;43403;51.948;5.922;2023-08-06T12:17:51;100660.75;;;15.93;100.00
57568;BME280;43403;51.948;5.922;2023-08-06T12:20:18;100655.75;;;15.83;100.00
57568;BME280;43403;51.948;5.922;2023-08-06T12:22:44;100655.50;;;15.78;100.00
57568;BME280;43403;51.948;5.922;2023-08-06T12:25:13;100655.28;;;15.79;100.00
57568;BME280;43403;51.948;5.922;2023-08-06T12:27:43;100654.84;;;15.76;100.00
57568;BME280;43403;51.948;5.922;2023-08-06T12:30:11;100656.84;;;15.74;100.00
57568;BME280;43403;51.948;5.922;2023-08-06T12:32:38;100661.47;;;15.72;100.00
57568;BME280;43403;51.948;5.922;2023-08-06T12:35:05;100666.88;;;15.78;100.00
57568;BME280;43403;51.948;5.922;2023-08-06T12:37:34;100672.16;;;15.78;100.00
57568;BME280;43403;51.948;5.922;2023-08-06T12:40:01;100673.78;;;15.79;100.00
57568;BME280;43403;51.948;5.922;2023-08-06T12:42:47;100664.78;;;15.74;100.00
57568;BME280;43403;51.948;5.922;2023-08-06T12:45:15;100676.50;;;15.71;100.00
57568;BME280;43403;51.948;5.922;2023-08-06T12:47:42;100681.78;;;15.71;100.00
57568;BME280;43403;51.948;5.922;2023-08-06T12:50:09;100676.81;;;15.76;100.00